Accueil
METAR-TAF:

METAR-TAF

Aéroports :

Aéroport de Toussus-le-Noble

Toussus-le-Noble, France

latitude: 48-46N, longitude: 002-06E, altitude: 164 m

Observation

Le bulletin a été fait il y a 21 minutes, à 16:30 UTC
Vent 8 kt de est/nord-est, variant entre nord/nord-est et est
Température 5°C
Humidité 56%
Pression 1027 hPa
Visibilité 10 km ou plus
Ciel couvert à une hauteur de 4400 ft

METAR: LFPN 051630Z AUTO 06008KT 030V090 9999 OVC044 05/M03 Q1027 NOSIG

Heure: 17:51 (16:51 UTC)

Prévision

Le bulletin a été fait il y a 2 heures et 51 minutes, à 14:00 UTC
Prévision valable du 05 à 15 UTC au 05 à 24 UTC
Vent 12 kt de nord-est
Visibilité 10 km ou plus
Nuages fragmentés à une hauteur de 3500 ft

TAF: LFPN 051400Z 0515/0524 04012KT 9999 BKN035

Observations et prévisions météorologiques de plus de 4000 aéroports (messages METAR et TAF).

Les stations disponibles sont représentées par des disques jaunes et rouges sur la carte.

Passer la souris dessus pour voir le nom de la station.

Cliquer dessus pour voir les observations et prévisions météorologiques.

Pour changer de carte: cliquez sur les boutons verts avec une croix noire pour zoomer, sur le bouton vert avec un tiret pour effectuer un zoom arrière, ou sur les flèches vertes pour les cartes adjacentes.


METAR-TAF: